createdAt,value
2018-10-18T00:01:50.079Z,10.73
2018-10-18T00:04:54.044Z,21.37
2018-10-18T00:07:58.039Z,20.70
2018-10-18T00:11:02.494Z,14.87
2018-10-18T00:14:06.608Z,15.50
2018-10-18T00:17:16.002Z,11.63
2018-10-18T00:20:19.922Z,18.00
2018-10-18T00:23:23.860Z,25.00
2018-10-18T00:26:28.138Z,10.00
2018-10-18T00:29:32.071Z,17.80
2018-10-18T00:32:36.008Z,15.13
2018-10-18T00:35:39.938Z,13.10
2018-10-18T00:38:43.891Z,13.17
2018-10-18T00:41:48.055Z,11.23
2018-10-18T00:44:52.320Z,16.70
2018-10-18T00:47:56.242Z,16.07
2018-10-18T00:51:00.376Z,12.37
2018-10-18T00:54:05.322Z,13.00
2018-10-18T00:57:09.435Z,17.00
2018-10-18T01:00:13.437Z,12.30
2018-10-18T01:03:17.474Z,9.07
2018-10-18T01:06:21.411Z,15.90
2018-10-18T01:09:25.346Z,12.63
2018-10-18T01:12:29.433Z,16.37
2018-10-18T01:15:33.412Z,8.93
2018-10-18T01:18:37.542Z,8.23
2018-10-18T01:21:41.472Z,10.63
2018-10-18T01:24:45.748Z,11.43
2018-10-18T01:27:49.666Z,13.20
2018-10-18T01:30:53.619Z,11.57
2018-10-18T01:33:57.590Z,15.13
2018-10-18T01:37:01.521Z,8.50
2018-10-18T01:40:05.686Z,9.93
2018-10-18T01:43:09.672Z,21.03
2018-10-18T01:46:13.920Z,11.63
2018-10-18T01:49:17.864Z,6.30
2018-10-18T01:52:21.784Z,8.80
2018-10-18T01:55:26.059Z,12.30
2018-10-18T01:58:29.994Z,10.63
2018-10-18T02:01:34.271Z,15.03
2018-10-18T02:04:38.430Z,6.17
2018-10-18T02:07:42.354Z,9.07
2018-10-18T02:10:46.309Z,15.73
2018-10-18T02:13:50.574Z,9.23
2018-10-18T02:16:54.853Z,11.13
2018-10-18T02:19:58.980Z,9.47
2018-10-18T02:23:02.937Z,5.60
2018-10-18T02:26:06.905Z,15.50
2018-10-18T02:29:10.834Z,9.83
2018-10-18T02:32:14.779Z,11.83
2018-10-18T02:35:19.026Z,10.30
2018-10-18T02:38:22.964Z,9.47
2018-10-18T02:41:26.898Z,7.33
2018-10-18T02:44:30.836Z,9.60
2018-10-18T02:47:35.203Z,10.33
2018-10-18T02:50:39.126Z,14.07
2018-10-18T02:53:43.375Z,5.17
2018-10-18T02:56:47.302Z,8.00
2018-10-18T02:59:51.236Z,16.13
2018-10-18T03:02:55.414Z,7.87
2018-10-18T03:05:59.499Z,11.17
2018-10-18T03:09:04.000Z,6.53
2018-10-18T03:12:07.986Z,9.57
2018-10-18T03:15:12.049Z,9.20
2018-10-18T03:18:16.142Z,11.23
2018-10-18T03:21:20.114Z,10.23
2018-10-18T03:24:24.048Z,8.10
2018-10-18T03:27:28.298Z,5.47
2018-10-18T03:30:32.283Z,5.97
2018-10-18T03:33:36.216Z,6.47
2018-10-18T03:36:40.313Z,6.93
2018-10-18T03:39:44.238Z,6.50
2018-10-18T03:42:48.172Z,11.40
2018-10-18T03:45:52.106Z,22.47
2018-10-18T03:48:56.042Z,5.30
2018-10-18T03:51:59.967Z,7.33
2018-10-18T03:55:03.911Z,4.60
2018-10-18T03:58:08.020Z,5.10
2018-10-18T04:01:11.947Z,6.10
2018-10-18T04:04:15.883Z,5.20
2018-10-18T04:07:19.807Z,7.97
2018-10-18T04:10:23.723Z,6.07
2018-10-18T04:13:27.671Z,3.00
2018-10-18T04:16:31.610Z,4.93
2018-10-18T04:19:35.535Z,6.97
2018-10-18T04:22:39.498Z,8.50
2018-10-18T04:25:43.504Z,7.63
2018-10-18T04:28:47.566Z,6.63
2018-10-18T04:31:51.486Z,4.13
2018-10-18T04:34:55.723Z,3.90
2018-10-18T04:37:59.883Z,4.93
2018-10-18T04:41:03.860Z,5.90
2018-10-18T04:44:07.848Z,4.60
2018-10-18T04:47:12.062Z,2.90
2018-10-18T04:50:16.125Z,2.67
2018-10-18T04:53:20.078Z,3.73
2018-10-18T04:56:24.014Z,9.23
2018-10-18T04:59:28.418Z,8.43
2018-10-18T05:02:32.359Z,3.53
2018-10-18T05:05:46.770Z,10.93
2018-10-18T05:08:50.689Z,6.43
2018-10-18T05:11:54.647Z,5.63
2018-10-18T05:14:58.783Z,5.63
2018-10-18T05:18:02.730Z,2.53
2018-10-18T05:21:06.625Z,3.33
2018-10-18T05:24:10.562Z,3.37
2018-10-18T05:27:14.516Z,5.10
2018-10-18T05:30:18.637Z,7.50
2018-10-18T05:33:22.595Z,2.30
2018-10-18T05:36:26.560Z,5.43
2018-10-18T05:39:30.635Z,4.67
2018-10-18T05:42:34.608Z,1.87
2018-10-18T05:45:38.549Z,4.23
2018-10-18T05:48:42.836Z,5.77
2018-10-18T05:51:46.766Z,2.23
2018-10-18T05:54:50.727Z,10.30
2018-10-18T05:57:54.875Z,1.53
2018-10-18T06:00:58.836Z,2.57
2018-10-18T06:04:02.975Z,1.90
2018-10-18T06:07:07.441Z,3.90
2018-10-18T06:10:23.803Z,5.73
2018-10-18T06:13:28.540Z,1.90
2018-10-18T06:16:32.824Z,3.00
2018-10-18T06:19:36.779Z,13.47
2018-10-18T06:22:41.695Z,9.57
2018-10-18T06:25:45.789Z,2.97
2018-10-18T06:28:50.712Z,5.00
2018-10-18T06:31:54.660Z,4.63
2018-10-18T06:34:58.644Z,18.37
2018-10-18T06:38:02.794Z,4.00
2018-10-18T06:41:07.236Z,2.83
2018-10-18T06:44:11.339Z,7.60
2018-10-18T06:47:15.291Z,2.63
2018-10-18T06:50:20.739Z,5.17
2018-10-18T06:53:24.708Z,5.23
2018-10-18T06:56:28.697Z,12.77
2018-10-18T06:59:32.637Z,5.80
2018-10-18T07:02:36.599Z,5.30
2018-10-18T07:05:40.557Z,7.27
2018-10-18T07:08:44.521Z,3.70
2018-10-18T07:11:48.667Z,3.47
2018-10-18T07:14:52.630Z,8.70
2018-10-18T07:17:56.604Z,5.13
2018-10-18T07:21:00.773Z,5.50
2018-10-18T07:24:05.110Z,9.73
2018-10-18T07:27:09.339Z,4.57
2018-10-18T07:30:14.662Z,7.00
2018-10-18T07:33:18.708Z,7.03
2018-10-18T07:36:22.659Z,3.97
2018-10-18T07:39:26.619Z,3.43
2018-10-18T07:42:30.588Z,4.80
2018-10-18T07:45:35.080Z,3.57
2018-10-18T07:48:39.222Z,8.90
2018-10-18T07:51:43.183Z,7.83
2018-10-18T07:54:47.459Z,6.67
2018-10-18T07:57:51.418Z,7.70
2018-10-18T08:00:55.427Z,5.93
2018-10-18T08:03:59.341Z,5.57
2018-10-18T08:07:03.320Z,2.67
2018-10-18T08:10:10.233Z,6.03
2018-10-18T08:13:14.217Z,6.73
2018-10-18T08:16:18.319Z,3.27
2018-10-18T08:19:22.256Z,7.97
2018-10-18T08:22:26.579Z,7.00
2018-10-18T08:25:30.695Z,6.47
2018-10-18T08:28:34.920Z,6.30
2018-10-18T08:31:38.921Z,3.77
2018-10-18T08:34:43.026Z,4.57
2018-10-18T08:37:47.096Z,5.63
2018-10-18T08:40:51.232Z,7.43
2018-10-18T08:43:55.234Z,7.53
2018-10-18T08:46:59.688Z,8.67
2018-10-18T08:50:03.887Z,7.80
2018-10-18T08:53:08.311Z,7.20
2018-10-18T08:56:12.255Z,5.23
2018-10-18T08:59:16.297Z,3.90
2018-10-18T09:02:20.344Z,5.90
2018-10-18T09:05:24.280Z,4.50
2018-10-18T09:08:28.214Z,6.80
2018-10-18T09:11:32.156Z,10.40
2018-10-18T09:14:36.107Z,6.67
2018-10-18T09:17:40.107Z,4.90
2018-10-18T09:20:44.394Z,8.57
2018-10-18T09:23:48.370Z,10.60
2018-10-18T09:26:52.806Z,4.73
2018-10-18T09:29:56.756Z,4.57
2018-10-18T09:33:00.688Z,4.57
2018-10-18T09:36:05.557Z,6.23
2018-10-18T09:39:09.823Z,3.50
2018-10-18T09:42:13.781Z,8.47
2018-10-18T09:45:17.760Z,4.53
2018-10-18T09:48:21.703Z,6.10
2018-10-18T09:51:25.908Z,7.10
2018-10-18T09:54:29.856Z,3.60
2018-10-18T09:57:33.809Z,6.30
2018-10-18T10:00:43.240Z,7.90
2018-10-18T10:03:47.203Z,5.87
2018-10-18T10:06:51.144Z,8.47
2018-10-18T10:09:55.275Z,4.63
2018-10-18T10:12:59.291Z,7.37
2018-10-18T10:16:03.380Z,6.23
2018-10-18T10:19:07.571Z,6.67
2018-10-18T10:22:11.664Z,7.30
2018-10-18T10:25:15.657Z,6.27
2018-10-18T10:28:19.726Z,7.50
2018-10-18T10:31:23.645Z,7.67
2018-10-18T10:34:27.589Z,2.97
2018-10-18T10:37:31.525Z,4.07
2018-10-18T10:40:35.438Z,5.90
2018-10-18T10:43:39.373Z,5.10
2018-10-18T10:46:43.320Z,2.23
2018-10-18T10:49:47.259Z,1.80
2018-10-18T10:52:51.193Z,2.13
2018-10-18T10:55:55.153Z,1.77
2018-10-18T10:58:59.406Z,4.23
2018-10-18T11:02:03.502Z,1.20
2018-10-18T11:05:07.866Z,1.77
2018-10-18T11:08:12.092Z,0.97
2018-10-18T11:11:16.910Z,0.73
2018-10-18T11:14:20.855Z,0.40
2018-10-18T11:17:25.148Z,0.40
2018-10-18T11:20:29.282Z,0.50
2018-10-18T11:23:34.003Z,0.60
2018-10-18T11:26:38.118Z,0.40
2018-10-18T11:29:42.061Z,0.40
2018-10-18T11:32:46.211Z,0.43
2018-10-18T11:35:50.184Z,0.60
2018-10-18T11:38:54.142Z,0.60
2018-10-18T11:41:58.083Z,0.50
2018-10-18T11:45:02.241Z,1.00
2018-10-18T11:48:07.453Z,0.63
2018-10-18T11:51:11.565Z,0.70
2018-10-18T11:54:15.730Z,0.57
2018-10-18T11:57:19.826Z,2.23
2018-10-18T12:00:24.121Z,1.43
2018-10-18T12:03:28.039Z,7.10
2018-10-18T12:06:31.970Z,0.73
2018-10-18T12:09:35.894Z,0.83
2018-10-18T12:12:39.827Z,0.40
2018-10-18T12:15:43.743Z,0.93
2018-10-18T12:18:47.882Z,0.73
2018-10-18T12:21:51.829Z,0.70
2018-10-18T12:24:55.994Z,0.97
2018-10-18T12:27:59.944Z,1.63
2018-10-18T12:31:03.845Z,0.60
2018-10-18T12:34:07.790Z,0.43
2018-10-18T12:37:12.251Z,0.57
2018-10-18T12:40:16.216Z,0.57
2018-10-18T12:43:20.310Z,0.50
2018-10-18T12:46:24.229Z,0.40
2018-10-18T12:49:28.161Z,1.53
2018-10-18T12:52:32.093Z,1.70
2018-10-18T12:55:36.035Z,0.50
2018-10-18T12:58:39.965Z,0.50
2018-10-18T13:01:43.958Z,1.50
2018-10-18T13:04:48.057Z,0.50
2018-10-18T13:07:52.314Z,0.60
2018-10-18T13:10:56.431Z,0.40
2018-10-18T13:14:00.375Z,12.00
2018-10-18T13:17:04.610Z,6.00
2018-10-18T13:20:09.238Z,0.40
2018-10-18T13:23:13.341Z,0.90
2018-10-18T13:26:17.593Z,0.40
2018-10-18T13:29:21.602Z,3.73
2018-10-18T13:32:25.539Z,1.43
2018-10-18T13:35:29.658Z,0.40
2018-10-18T13:38:33.567Z,0.40
2018-10-18T13:41:37.514Z,0.50
2018-10-18T13:44:41.446Z,0.70
2018-10-18T13:47:45.358Z,0.30
2018-10-18T13:50:49.278Z,1.50
2018-10-18T13:53:53.230Z,0.80
2018-10-18T13:56:57.342Z,0.87
2018-10-18T14:00:18.654Z,0.60
2018-10-18T14:03:22.765Z,2.10
2018-10-18T14:06:26.694Z,0.30
2018-10-18T14:09:30.617Z,0.50
2018-10-18T14:12:34.546Z,1.17
2018-10-18T14:15:38.487Z,0.40
2018-10-18T14:18:42.743Z,0.40
2018-10-18T14:21:46.657Z,0.30
2018-10-18T14:24:50.599Z,0.30
2018-10-18T14:27:54.522Z,1.07
2018-10-18T14:30:59.302Z,0.40
2018-10-18T14:34:03.322Z,0.30
2018-10-18T14:37:07.593Z,0.90
2018-10-18T14:40:12.438Z,0.30
2018-10-18T14:43:16.397Z,0.40
2018-10-18T14:46:20.850Z,0.30
2018-10-18T14:49:24.773Z,0.30
2018-10-18T14:52:28.752Z,1.13
2018-10-18T14:55:33.233Z,0.30
2018-10-18T14:58:37.157Z,0.30
2018-10-18T15:01:41.105Z,1.03
2018-10-18T15:04:45.355Z,0.40
2018-10-18T15:07:49.278Z,0.30
2018-10-18T15:10:53.400Z,0.40
2018-10-18T15:13:57.533Z,1.93
2018-10-18T15:17:01.707Z,0.40
2018-10-18T15:20:07.196Z,1.20
2018-10-18T15:23:11.337Z,0.40
2018-10-18T15:26:15.424Z,0.20
2018-10-18T15:29:19.632Z,0.30
2018-10-18T15:32:23.713Z,0.30
2018-10-18T15:35:27.792Z,0.30
2018-10-18T15:38:31.896Z,0.63
2018-10-18T15:41:36.330Z,0.30
2018-10-18T15:44:40.271Z,0.50
2018-10-18T15:47:44.833Z,0.40
2018-10-18T15:50:48.871Z,0.30
2018-10-18T15:53:52.987Z,0.37
2018-10-18T15:56:56.972Z,1.27
2018-10-18T16:00:01.411Z,0.40
2018-10-18T16:03:05.748Z,0.30
2018-10-18T16:06:10.212Z,0.50
2018-10-18T16:09:14.810Z,0.87
2018-10-18T16:12:18.729Z,0.40
2018-10-18T16:15:23.326Z,0.40
2018-10-18T16:18:27.289Z,0.67
2018-10-18T16:21:31.231Z,0.20
2018-10-18T16:24:35.159Z,0.30
2018-10-18T16:27:39.222Z,0.30
2018-10-18T16:30:43.364Z,1.43
2018-10-18T16:33:47.374Z,0.63
2018-10-18T16:36:51.434Z,0.40
2018-10-18T16:39:55.358Z,0.30
2018-10-18T16:43:01.001Z,0.50
2018-10-18T16:46:05.081Z,1.30
2018-10-18T16:49:09.124Z,0.30
2018-10-18T16:52:13.284Z,1.80
2018-10-18T16:55:17.346Z,0.30
2018-10-18T16:58:21.447Z,1.07
2018-10-18T17:01:25.619Z,0.33
2018-10-18T17:04:29.609Z,0.37
2018-10-18T17:07:33.635Z,0.30
2018-10-18T17:10:37.528Z,0.30
2018-10-18T17:13:41.442Z,0.30
2018-10-18T17:16:45.356Z,0.40
2018-10-18T17:19:49.268Z,0.30
2018-10-18T17:22:53.169Z,0.30
2018-10-18T17:25:57.101Z,0.40
2018-10-18T17:29:01.181Z,1.47
2018-10-18T17:32:05.156Z,0.30
2018-10-18T17:35:09.595Z,0.30
2018-10-18T17:38:13.562Z,0.30
2018-10-18T17:41:18.537Z,3.90
2018-10-18T17:44:22.479Z,0.30
2018-10-18T17:47:26.482Z,0.30
2018-10-18T17:50:30.415Z,1.80
2018-10-18T17:53:34.330Z,0.37
2018-10-18T17:56:38.233Z,0.30
2018-10-18T17:59:42.183Z,0.30
2018-10-18T18:02:46.265Z,0.20
2018-10-18T18:05:50.803Z,0.30
2018-10-18T18:08:54.834Z,0.40
2018-10-18T18:11:58.742Z,0.40
2018-10-18T18:15:02.659Z,1.80
2018-10-18T18:18:06.902Z,8.43
2018-10-18T18:21:10.919Z,0.93
2018-10-18T18:24:14.817Z,3.33
2018-10-18T18:27:18.697Z,0.30
2018-10-18T18:30:22.581Z,0.30
2018-10-18T18:33:26.470Z,0.40
2018-10-18T18:36:30.866Z,0.30
2018-10-18T18:39:34.746Z,0.30
2018-10-18T18:42:39.409Z,0.30
2018-10-18T18:45:43.301Z,0.30
2018-10-18T18:48:47.190Z,0.40
2018-10-18T18:51:51.068Z,0.53
2018-10-18T18:54:55.161Z,0.30
2018-10-18T18:57:59.270Z,0.30
2018-10-18T19:01:03.165Z,0.30
2018-10-18T19:04:07.081Z,0.40
2018-10-18T19:07:10.971Z,0.67
2018-10-18T19:10:15.182Z,0.30
2018-10-18T19:13:19.120Z,0.23
2018-10-18T19:16:23.519Z,2.00
2018-10-18T19:19:27.401Z,0.30
2018-10-18T19:22:31.688Z,0.30
2018-10-18T19:25:35.705Z,0.30
2018-10-18T19:28:39.649Z,0.30
2018-10-18T19:31:43.680Z,0.30
2018-10-18T19:34:48.114Z,0.30
2018-10-18T19:37:52.043Z,0.60
2018-10-18T19:40:56.444Z,13.33
2018-10-18T19:44:00.330Z,0.30
2018-10-18T19:47:04.503Z,0.30
2018-10-18T19:50:09.125Z,0.40
2018-10-18T19:53:13.155Z,0.40
2018-10-18T19:56:17.054Z,0.60
2018-10-18T19:59:21.139Z,0.30
2018-10-18T20:02:25.035Z,0.60
2018-10-18T20:05:29.242Z,0.33
2018-10-18T20:08:33.466Z,0.30
2018-10-18T20:11:37.359Z,0.70
2018-10-18T20:14:41.239Z,0.40
2018-10-18T20:17:45.122Z,0.33
2018-10-18T20:20:48.998Z,0.43
2018-10-18T20:23:53.133Z,0.60
2018-10-18T20:26:57.206Z,0.40
2018-10-18T20:30:01.113Z,0.30
2018-10-18T20:33:05.364Z,1.23
2018-10-18T20:36:09.432Z,0.40
2018-10-18T20:39:13.398Z,1.10
2018-10-18T20:42:17.425Z,0.97
2018-10-18T20:45:26.958Z,0.30
2018-10-18T20:48:30.843Z,0.77
2018-10-18T20:51:35.077Z,0.40
2018-10-18T20:54:39.151Z,0.40
2018-10-18T20:57:43.048Z,0.47
2018-10-18T21:00:47.270Z,0.70
2018-10-18T21:03:51.341Z,0.30
2018-10-18T21:06:55.227Z,0.60
2018-10-18T21:09:59.561Z,0.30
2018-10-18T21:13:03.684Z,0.70
2018-10-18T21:16:08.029Z,0.90
2018-10-18T21:19:12.249Z,0.40
2018-10-18T21:22:16.190Z,0.80
2018-10-18T21:25:20.323Z,1.27
2018-10-18T21:28:24.239Z,0.67
2018-10-18T21:31:28.133Z,0.50
2018-10-18T21:34:32.059Z,0.47
2018-10-18T21:37:36.771Z,0.30
2018-10-18T21:40:40.646Z,0.43
2018-10-18T21:43:44.530Z,0.33
2018-10-18T21:46:48.436Z,1.43
2018-10-18T21:49:52.318Z,0.40
2018-10-18T21:52:56.270Z,0.40
2018-10-18T21:56:00.370Z,1.17
2018-10-18T21:59:04.672Z,0.53
2018-10-18T22:02:08.985Z,2.10
2018-10-18T22:05:13.761Z,0.73
2018-10-18T22:08:17.799Z,0.60
2018-10-18T22:11:21.679Z,0.57
2018-10-18T22:14:25.636Z,1.47
2018-10-18T22:17:29.662Z,0.30
2018-10-18T22:20:33.699Z,1.70
2018-10-18T22:23:37.577Z,0.30
2018-10-18T22:26:41.806Z,0.73
2018-10-18T22:29:45.969Z,0.83
2018-10-18T22:32:49.986Z,0.70
2018-10-18T22:35:53.871Z,1.03
2018-10-18T22:38:58.099Z,0.40
2018-10-18T22:42:02.530Z,0.40
2018-10-18T22:45:07.694Z,2.00
2018-10-18T22:48:12.111Z,0.50
2018-10-18T22:51:16.044Z,0.40
2018-10-18T22:54:20.123Z,0.33
2018-10-18T22:57:24.027Z,0.60
2018-10-18T23:00:28.243Z,0.30
2018-10-18T23:03:32.149Z,0.30
2018-10-18T23:06:36.049Z,0.40
2018-10-18T23:09:39.954Z,0.40
2018-10-18T23:12:43.829Z,6.50
2018-10-18T23:15:47.923Z,0.30
2018-10-18T23:18:51.809Z,0.40
2018-10-18T23:21:55.677Z,0.40
2018-10-18T23:24:59.557Z,1.20
2018-10-18T23:28:03.454Z,2.07
2018-10-18T23:31:07.351Z,0.47
2018-10-18T23:34:11.801Z,0.57
2018-10-18T23:37:15.687Z,0.40
2018-10-18T23:40:19.579Z,6.40
2018-10-18T23:43:23.453Z,0.40
2018-10-18T23:46:27.347Z,0.60
2018-10-18T23:49:31.242Z,0.40
2018-10-18T23:52:35.281Z,0.30
2018-10-18T23:55:39.231Z,2.10
2018-10-18T23:58:43.386Z,0.50
